Weather at Sremska Mitrovica / Veliki Radinci Airfield

Public forecast

Using degrees Celsius for public forecast. Weather courtesy of forecast.io.

Closest aviation weather report (METAR) to Sremska Mitrovica / Veliki Radinci Airfield

Closest report is Batajnica Air Base, 26.1 nm (48.3 km) ESE. Retrieved 2022/08/18 03:30 UTC (25 minutes ago):

LYBT 180330Z 20004KT CAVOK 20/17 Q1012 NOSIG

Closest aviation forecast (TAF) to Sremska Mitrovica / Veliki Radinci Airfield

Closest forecast is Batajnica Air Base, 26.1 nm (48.3 km) ESE. Retrieved 2022-08-18 00:00 UTC (4 hours ago):

TAF LYBE 172300Z 1800/1824 22005KT CAVOK TX37/1814Z TN21/1803Z TAF LYBT 172300Z 1800/1824 23004KT CAVOK TX37/1814Z TN19/1803Z